sensor_id;sensor_type;location;lat;lon;timestamp;temperature;humidity
26037;DHT22;13810;48.376;10.944;2024-03-02T00:00:25;6.30;99.90
26037;DHT22;13810;48.376;10.944;2024-03-02T00:00:57;6.30;99.90
26037;DHT22;13810;48.376;10.944;2024-03-02T00:01:28;6.30;99.90
26037;DHT22;13810;48.376;10.944;2024-03-02T00:01:58;6.30;99.90
26037;DHT22;13810;48.376;10.944;2024-03-02T00:02:29;6.30;99.90
26037;DHT22;13810;48.376;10.944;2024-03-02T00:03:00;6.30;99.90
26037;DHT22;13810;48.376;10.944;2024-03-02T00:03:30;6.30;99.90
26037;DHT22;13810;48.376;10.944;2024-03-02T00:04:03;6.30;99.90
26037;DHT22;13810;48.376;10.944;2024-03-02T00:04:34;6.30;99.90
26037;DHT22;13810;48.376;10.944;2024-03-02T00:05:06;6.30;99.90
26037;DHT22;13810;48.376;10.944;2024-03-02T00:05:36;6.20;99.90
26037;DHT22;13810;48.376;10.944;2024-03-02T00:06:07;6.30;99.90
26037;DHT22;13810;48.376;10.944;2024-03-02T00:06:38;6.20;99.90
26037;DHT22;13810;48.376;10.944;2024-03-02T00:07:08;6.20;99.90
26037;DHT22;13810;48.376;10.944;2024-03-02T00:07:41;6.20;99.90
26037;DHT22;13810;48.376;10.944;2024-03-02T00:08:13;6.20;99.90
26037;DHT22;13810;48.376;10.944;2024-03-02T00:08:46;6.20;99.90
26037;DHT22;13810;48.376;10.944;2024-03-02T00:09:17;6.20;99.90
26037;DHT22;13810;48.376;10.944;2024-03-02T00:09:47;6.20;99.90
26037;DHT22;13810;48.376;10.944;2024-03-02T00:10:24;6.20;99.90
26037;DHT22;13810;48.376;10.944;2024-03-02T00:11:00;6.20;99.90
26037;DHT22;13810;48.376;10.944;2024-03-02T00:11:35;6.10;99.90
26037;DHT22;13810;48.376;10.944;2024-03-02T00:12:06;6.10;99.90
26037;DHT22;13810;48.376;10.944;2024-03-02T00:12:41;6.10;99.90
26037;DHT22;13810;48.376;10.944;2024-03-02T00:13:13;6.10;99.90
26037;DHT22;13810;48.376;10.944;2024-03-02T00:13:43;6.20;99.90
26037;DHT22;13810;48.376;10.944;2024-03-02T00:14:15;6.10;99.90
26037;DHT22;13810;48.376;10.944;2024-03-02T00:14:46;6.10;99.90
26037;DHT22;13810;48.376;10.944;2024-03-02T00:16:08;6.10;99.90
26037;DHT22;13810;48.376;10.944;2024-03-02T00:16:39;6.10;99.90
26037;DHT22;13810;48.376;10.944;2024-03-02T00:17:21;6.10;99.90
26037;DHT22;13810;48.376;10.944;2024-03-02T00:17:54;6.10;99.90
26037;DHT22;13810;48.376;10.944;2024-03-02T00:18:30;6.10;99.90
26037;DHT22;13810;48.376;10.944;2024-03-02T00:19:05;6.00;99.90
26037;DHT22;13810;48.376;10.944;2024-03-02T00:19:38;6.00;99.90
26037;DHT22;13810;48.376;10.944;2024-03-02T00:20:10;6.00;99.90
26037;DHT22;13810;48.376;10.944;2024-03-02T00:20:41;6.00;99.90
26037;DHT22;13810;48.376;10.944;2024-03-02T00:21:12;6.00;99.90
26037;DHT22;13810;48.376;10.944;2024-03-02T00:21:45;6.00;99.90
26037;DHT22;13810;48.376;10.944;2024-03-02T00:22:15;6.00;99.90
26037;DHT22;13810;48.376;10.944;2024-03-02T00:22:46;6.00;99.90
26037;DHT22;13810;48.376;10.944;2024-03-02T00:23:18;6.00;99.90
26037;DHT22;13810;48.376;10.944;2024-03-02T00:23:50;6.00;99.90
26037;DHT22;13810;48.376;10.944;2024-03-02T00:24:32;6.00;99.90
26037;DHT22;13810;48.376;10.944;2024-03-02T00:25:04;6.00;99.90
26037;DHT22;13810;48.376;10.944;2024-03-02T00:25:46;6.00;99.90
26037;DHT22;13810;48.376;10.944;2024-03-02T00:26:17;6.10;99.90
26037;DHT22;13810;48.376;10.944;2024-03-02T00:26:48;6.00;99.90
26037;DHT22;13810;48.376;10.944;2024-03-02T00:27:19;6.00;99.90
26037;DHT22;13810;48.376;10.944;2024-03-02T00:27:50;6.00;99.90
26037;DHT22;13810;48.376;10.944;2024-03-02T00:28:56;6.10;99.90
26037;DHT22;13810;48.376;10.944;2024-03-02T00:29:30;6.10;99.90
26037;DHT22;13810;48.376;10.944;2024-03-02T00:30:13;6.10;99.90
26037;DHT22;13810;48.376;10.944;2024-03-02T00:31:06;6.10;99.90
26037;DHT22;13810;48.376;10.944;2024-03-02T00:31:39;6.00;99.90
26037;DHT22;13810;48.376;10.944;2024-03-02T00:32:14;6.10;99.90
26037;DHT22;13810;48.376;10.944;2024-03-02T00:32:46;6.00;99.90
26037;DHT22;13810;48.376;10.944;2024-03-02T00:33:16;6.00;99.90
26037;DHT22;13810;48.376;10.944;2024-03-02T00:33:48;6.00;99.90
26037;DHT22;13810;48.376;10.944;2024-03-02T00:34:19;6.00;99.90
26037;DHT22;13810;48.376;10.944;2024-03-02T00:34:50;5.90;99.90
26037;DHT22;13810;48.376;10.944;2024-03-02T00:35:21;5.90;99.90
26037;DHT22;13810;48.376;10.944;2024-03-02T00:35:53;5.90;99.90
26037;DHT22;13810;48.376;10.944;2024-03-02T00:36:26;5.90;99.90
26037;DHT22;13810;48.376;10.944;2024-03-02T00:36:59;5.90;99.90
26037;DHT22;13810;48.376;10.944;2024-03-02T00:37:30;5.90;99.90
26037;DHT22;13810;48.376;10.944;2024-03-02T00:38:07;5.90;99.90
26037;DHT22;13810;48.376;10.944;2024-03-02T00:38:47;5.90;99.90
26037;DHT22;13810;48.376;10.944;2024-03-02T00:39:18;5.90;99.90
26037;DHT22;13810;48.376;10.944;2024-03-02T00:39:49;5.90;99.90
26037;DHT22;13810;48.376;10.944;2024-03-02T00:40:20;5.80;99.90
26037;DHT22;13810;48.376;10.944;2024-03-02T00:40:50;5.80;99.90
26037;DHT22;13810;48.376;10.944;2024-03-02T00:41:31;5.80;99.90
26037;DHT22;13810;48.376;10.944;2024-03-02T00:42:02;5.90;99.90
26037;DHT22;13810;48.376;10.944;2024-03-02T00:42:32;5.80;99.90
26037;DHT22;13810;48.376;10.944;2024-03-02T00:43:03;5.80;99.90
26037;DHT22;13810;48.376;10.944;2024-03-02T00:43:44;5.80;99.90
26037;DHT22;13810;48.376;10.944;2024-03-02T00:44:16;5.80;99.90
26037;DHT22;13810;48.376;10.944;2024-03-02T00:44:48;5.80;99.90
26037;DHT22;13810;48.376;10.944;2024-03-02T00:45:19;5.80;99.90
26037;DHT22;13810;48.376;10.944;2024-03-02T00:45:50;5.80;99.90
26037;DHT22;13810;48.376;10.944;2024-03-02T00:46:20;5.70;99.90
26037;DHT22;13810;48.376;10.944;2024-03-02T00:46:52;5.70;99.90
26037;DHT22;13810;48.376;10.944;2024-03-02T00:47:23;5.70;99.90
26037;DHT22;13810;48.376;10.944;2024-03-02T00:47:54;5.70;99.90
26037;DHT22;13810;48.376;10.944;2024-03-02T00:48:24;5.80;99.90
26037;DHT22;13810;48.376;10.944;2024-03-02T00:49:02;5.70;99.90
26037;DHT22;13810;48.376;10.944;2024-03-02T00:49:33;5.80;99.90
26037;DHT22;13810;48.376;10.944;2024-03-02T00:50:05;5.70;99.90
26037;DHT22;13810;48.376;10.944;2024-03-02T00:50:36;5.80;99.90
26037;DHT22;13810;48.376;10.944;2024-03-02T00:51:08;5.80;99.90
26037;DHT22;13810;48.376;10.944;2024-03-02T00:51:39;5.80;99.90
26037;DHT22;13810;48.376;10.944;2024-03-02T00:52:10;5.80;99.90
26037;DHT22;13810;48.376;10.944;2024-03-02T00:52:41;5.80;99.90
26037;DHT22;13810;48.376;10.944;2024-03-02T00:53:12;5.80;99.90
26037;DHT22;13810;48.376;10.944;2024-03-02T00:53:43;5.80;99.90
26037;DHT22;13810;48.376;10.944;2024-03-02T00:54:14;5.80;99.90
26037;DHT22;13810;48.376;10.944;2024-03-02T00:54:45;5.80;99.90
26037;DHT22;13810;48.376;10.944;2024-03-02T00:55:15;5.70;99.90
26037;DHT22;13810;48.376;10.944;2024-03-02T00:55:46;5.80;99.90
26037;DHT22;13810;48.376;10.944;2024-03-02T00:56:18;5.80;99.90
26037;DHT22;13810;48.376;10.944;2024-03-02T00:56:49;5.80;99.90
26037;DHT22;13810;48.376;10.944;2024-03-02T00:57:20;5.80;99.90
26037;DHT22;13810;48.376;10.944;2024-03-02T00:57:50;5.80;99.90
26037;DHT22;13810;48.376;10.944;2024-03-02T00:58:21;5.80;99.90
26037;DHT22;13810;48.376;10.944;2024-03-02T00:58:52;5.80;99.90
26037;DHT22;13810;48.376;10.944;2024-03-02T00:59:23;5.80;99.90
26037;DHT22;13810;48.376;10.944;2024-03-02T00:59:54;5.80;99.90
26037;DHT22;13810;48.376;10.944;2024-03-02T01:00:24;5.80;99.90
26037;DHT22;13810;48.376;10.944;2024-03-02T01:00:55;5.80;99.90
26037;DHT22;13810;48.376;10.944;2024-03-02T01:01:26;5.80;99.90
26037;DHT22;13810;48.376;10.944;2024-03-02T01:01:56;5.80;99.90
26037;DHT22;13810;48.376;10.944;2024-03-02T01:02:28;5.80;99.90
26037;DHT22;13810;48.376;10.944;2024-03-02T01:02:59;5.80;99.90
26037;DHT22;13810;48.376;10.944;2024-03-02T01:03:31;5.90;99.90
26037;DHT22;13810;48.376;10.944;2024-03-02T01:04:03;5.80;99.90
26037;DHT22;13810;48.376;10.944;2024-03-02T01:04:34;5.90;99.90
26037;DHT22;13810;48.376;10.944;2024-03-02T01:05:04;5.90;99.90
26037;DHT22;13810;48.376;10.944;2024-03-02T01:05:35;5.90;99.90
26037;DHT22;13810;48.376;10.944;2024-03-02T01:06:06;5.90;99.90
26037;DHT22;13810;48.376;10.944;2024-03-02T01:06:37;5.80;99.90
26037;DHT22;13810;48.376;10.944;2024-03-02T01:07:08;5.90;99.90
26037;DHT22;13810;48.376;10.944;2024-03-02T01:07:39;5.90;99.90
26037;DHT22;13810;48.376;10.944;2024-03-02T01:08:10;5.90;99.90
26037;DHT22;13810;48.376;10.944;2024-03-02T01:08:41;5.90;99.90
26037;DHT22;13810;48.376;10.944;2024-03-02T01:09:12;5.90;99.90
26037;DHT22;13810;48.376;10.944;2024-03-02T01:09:43;5.90;99.90
26037;DHT22;13810;48.376;10.944;2024-03-02T01:10:14;5.90;99.90
26037;DHT22;13810;48.376;10.944;2024-03-02T01:10:44;5.90;99.90
26037;DHT22;13810;48.376;10.944;2024-03-02T01:11:15;5.90;99.90
26037;DHT22;13810;48.376;10.944;2024-03-02T01:11:46;5.90;99.90
26037;DHT22;13810;48.376;10.944;2024-03-02T01:12:16;5.80;99.90
26037;DHT22;13810;48.376;10.944;2024-03-02T01:12:47;5.80;99.90
26037;DHT22;13810;48.376;10.944;2024-03-02T01:13:18;5.80;99.90
26037;DHT22;13810;48.376;10.944;2024-03-02T01:13:49;5.80;99.90
26037;DHT22;13810;48.376;10.944;2024-03-02T01:14:20;5.80;99.90
26037;DHT22;13810;48.376;10.944;2024-03-02T01:14:50;5.80;99.90
26037;DHT22;13810;48.376;10.944;2024-03-02T01:15:21;5.80;99.90
26037;DHT22;13810;48.376;10.944;2024-03-02T01:15:52;5.80;99.90
26037;DHT22;13810;48.376;10.944;2024-03-02T01:16:23;5.80;99.90
26037;DHT22;13810;48.376;10.944;2024-03-02T01:16:54;5.80;99.90
26037;DHT22;13810;48.376;10.944;2024-03-02T01:17:25;5.80;99.90
26037;DHT22;13810;48.376;10.944;2024-03-02T01:17:55;5.90;99.90
26037;DHT22;13810;48.376;10.944;2024-03-02T01:18:26;5.80;99.90
26037;DHT22;13810;48.376;10.944;2024-03-02T01:18:57;5.80;99.90
26037;DHT22;13810;48.376;10.944;2024-03-02T01:19:27;5.80;99.90
26037;DHT22;13810;48.376;10.944;2024-03-02T01:19:58;5.80;99.90
26037;DHT22;13810;48.376;10.944;2024-03-02T01:20:29;5.80;99.90
26037;DHT22;13810;48.376;10.944;2024-03-02T01:20:59;5.80;99.90
26037;DHT22;13810;48.376;10.944;2024-03-02T01:21:30;5.80;99.90
26037;DHT22;13810;48.376;10.944;2024-03-02T01:22:01;5.80;99.90
26037;DHT22;13810;48.376;10.944;2024-03-02T01:22:31;5.70;99.90
26037;DHT22;13810;48.376;10.944;2024-03-02T01:23:02;5.70;99.90
26037;DHT22;13810;48.376;10.944;2024-03-02T01:23:33;5.70;99.90
26037;DHT22;13810;48.376;10.944;2024-03-02T01:24:04;5.70;99.90
26037;DHT22;13810;48.376;10.944;2024-03-02T01:24:35;5.70;99.90
26037;DHT22;13810;48.376;10.944;2024-03-02T01:25:06;5.70;99.90
26037;DHT22;13810;48.376;10.944;2024-03-02T01:25:36;5.70;99.90
26037;DHT22;13810;48.376;10.944;2024-03-02T01:26:07;5.70;99.90
26037;DHT22;13810;48.376;10.944;2024-03-02T01:26:37;5.70;99.90
26037;DHT22;13810;48.376;10.944;2024-03-02T01:27:08;5.70;99.90
26037;DHT22;13810;48.376;10.944;2024-03-02T01:27:39;5.70;99.90
26037;DHT22;13810;48.376;10.944;2024-03-02T01:28:09;5.70;99.90
26037;DHT22;13810;48.376;10.944;2024-03-02T01:28:40;5.70;99.90
26037;DHT22;13810;48.376;10.944;2024-03-02T01:29:11;5.70;99.90
26037;DHT22;13810;48.376;10.944;2024-03-02T01:29:41;5.70;99.90
26037;DHT22;13810;48.376;10.944;2024-03-02T01:30:12;5.70;99.90
26037;DHT22;13810;48.376;10.944;2024-03-02T01:30:43;5.70;99.90
26037;DHT22;13810;48.376;10.944;2024-03-02T01:31:13;5.70;99.90
26037;DHT22;13810;48.376;10.944;2024-03-02T01:31:44;5.70;99.90
26037;DHT22;13810;48.376;10.944;2024-03-02T01:32:15;5.70;99.90
26037;DHT22;13810;48.376;10.944;2024-03-02T01:32:46;5.70;99.90
26037;DHT22;13810;48.376;10.944;2024-03-02T01:33:17;5.70;99.90
26037;DHT22;13810;48.376;10.944;2024-03-02T01:33:48;5.60;99.90
26037;DHT22;13810;48.376;10.944;2024-03-02T01:34:19;5.60;99.90
26037;DHT22;13810;48.376;10.944;2024-03-02T01:34:49;5.60;99.90
26037;DHT22;13810;48.376;10.944;2024-03-02T01:35:20;5.60;99.90
26037;DHT22;13810;48.376;10.944;2024-03-02T01:35:51;5.60;99.90
26037;DHT22;13810;48.376;10.944;2024-03-02T01:36:21;5.60;99.90
26037;DHT22;13810;48.376;10.944;2024-03-02T01:36:52;5.60;99.90
26037;DHT22;13810;48.376;10.944;2024-03-02T01:37:22;5.60;99.90
26037;DHT22;13810;48.376;10.944;2024-03-02T01:37:53;5.60;99.90
26037;DHT22;13810;48.376;10.944;2024-03-02T01:38:24;5.60;99.90
26037;DHT22;13810;48.376;10.944;2024-03-02T01:38:55;5.60;99.90
26037;DHT22;13810;48.376;10.944;2024-03-02T01:39:25;5.60;99.90
26037;DHT22;13810;48.376;10.944;2024-03-02T01:39:56;5.60;99.90
26037;DHT22;13810;48.376;10.944;2024-03-02T01:40:27;5.60;99.90
26037;DHT22;13810;48.376;10.944;2024-03-02T01:40:58;5.60;99.90
26037;DHT22;13810;48.376;10.944;2024-03-02T01:41:29;5.60;99.90
26037;DHT22;13810;48.376;10.944;2024-03-02T01:42:00;5.60;99.90
26037;DHT22;13810;48.376;10.944;2024-03-02T01:42:30;5.60;99.90
26037;DHT22;13810;48.376;10.944;2024-03-02T01:43:01;5.60;99.90
26037;DHT22;13810;48.376;10.944;2024-03-02T01:43:33;5.60;99.90
26037;DHT22;13810;48.376;10.944;2024-03-02T01:44:04;5.60;99.90
26037;DHT22;13810;48.376;10.944;2024-03-02T01:44:34;5.60;99.90
26037;DHT22;13810;48.376;10.944;2024-03-02T01:45:06;5.60;99.90
26037;DHT22;13810;48.376;10.944;2024-03-02T01:45:37;5.60;99.90
26037;DHT22;13810;48.376;10.944;2024-03-02T01:46:08;5.60;99.90
26037;DHT22;13810;48.376;10.944;2024-03-02T01:46:39;5.60;99.90
26037;DHT22;13810;48.376;10.944;2024-03-02T01:47:10;5.70;99.90
26037;DHT22;13810;48.376;10.944;2024-03-02T01:47:50;5.70;99.90
26037;DHT22;13810;48.376;10.944;2024-03-02T01:48:21;5.70;99.90
26037;DHT22;13810;48.376;10.944;2024-03-02T01:48:51;5.70;99.90
26037;DHT22;13810;48.376;10.944;2024-03-02T01:49:22;5.70;99.90
26037;DHT22;13810;48.376;10.944;2024-03-02T01:49:53;5.70;99.90
26037;DHT22;13810;48.376;10.944;2024-03-02T01:50:32;5.70;99.90
26037;DHT22;13810;48.376;10.944;2024-03-02T01:51:02;5.70;99.90
26037;DHT22;13810;48.376;10.944;2024-03-02T01:51:34;5.70;99.90
26037;DHT22;13810;48.376;10.944;2024-03-02T01:52:05;5.60;99.90
26037;DHT22;13810;48.376;10.944;2024-03-02T01:52:36;5.70;99.90
26037;DHT22;13810;48.376;10.944;2024-03-02T01:53:08;5.70;99.90
26037;DHT22;13810;48.376;10.944;2024-03-02T01:53:39;5.70;99.90
26037;DHT22;13810;48.376;10.944;2024-03-02T01:54:10;5.70;99.90
26037;DHT22;13810;48.376;10.944;2024-03-02T01:54:40;5.70;99.90
26037;DHT22;13810;48.376;10.944;2024-03-02T01:55:11;5.70;99.90
26037;DHT22;13810;48.376;10.944;2024-03-02T01:55:42;5.70;99.90
26037;DHT22;13810;48.376;10.944;2024-03-02T01:56:12;5.70;99.90
26037;DHT22;13810;48.376;10.944;2024-03-02T01:56:43;5.70;99.90
26037;DHT22;13810;48.376;10.944;2024-03-02T01:57:13;5.70;99.90
26037;DHT22;13810;48.376;10.944;2024-03-02T01:57:44;5.70;99.90
26037;DHT22;13810;48.376;10.944;2024-03-02T01:58:15;5.70;99.90
26037;DHT22;13810;48.376;10.944;2024-03-02T01:58:46;5.70;99.90
26037;DHT22;13810;48.376;10.944;2024-03-02T01:59:16;5.70;99.90
26037;DHT22;13810;48.376;10.944;2024-03-02T01:59:47;5.70;99.90
26037;DHT22;13810;48.376;10.944;2024-03-02T02:00:21;5.70;99.90
26037;DHT22;13810;48.376;10.944;2024-03-02T02:00:52;5.70;99.90
26037;DHT22;13810;48.376;10.944;2024-03-02T02:01:23;5.70;99.90
26037;DHT22;13810;48.376;10.944;2024-03-02T02:01:53;5.70;99.90
26037;DHT22;13810;48.376;10.944;2024-03-02T02:02:24;5.70;99.90
26037;DHT22;13810;48.376;10.944;2024-03-02T02:02:55;5.70;99.90
26037;DHT22;13810;48.376;10.944;2024-03-02T02:03:26;5.70;99.90
26037;DHT22;13810;48.376;10.944;2024-03-02T02:03:56;5.70;99.90
26037;DHT22;13810;48.376;10.944;2024-03-02T02:04:27;5.70;99.90
26037;DHT22;13810;48.376;10.944;2024-03-02T02:04:58;5.70;99.90
26037;DHT22;13810;48.376;10.944;2024-03-02T02:05:28;5.70;99.90
26037;DHT22;13810;48.376;10.944;2024-03-02T02:05:59;5.70;99.90
26037;DHT22;13810;48.376;10.944;2024-03-02T02:06:30;5.70;99.90
26037;DHT22;13810;48.376;10.944;2024-03-02T02:07:01;5.70;99.90
26037;DHT22;13810;48.376;10.944;2024-03-02T02:07:31;5.70;99.90
26037;DHT22;13810;48.376;10.944;2024-03-02T02:08:02;5.70;99.90
26037;DHT22;13810;48.376;10.944;2024-03-02T02:08:33;5.70;99.90
26037;DHT22;13810;48.376;10.944;2024-03-02T02:09:03;5.70;99.90
26037;DHT22;13810;48.376;10.944;2024-03-02T02:09:34;5.70;99.90
26037;DHT22;13810;48.376;10.944;2024-03-02T02:10:05;5.70;99.90
26037;DHT22;13810;48.376;10.944;2024-03-02T02:10:36;5.70;99.90
26037;DHT22;13810;48.376;10.944;2024-03-02T02:11:07;5.70;99.90
26037;DHT22;13810;48.376;10.944;2024-03-02T02:11:38;5.70;99.90
26037;DHT22;13810;48.376;10.944;2024-03-02T02:12:09;5.70;99.90
26037;DHT22;13810;48.376;10.944;2024-03-02T02:12:40;5.70;99.90
26037;DHT22;13810;48.376;10.944;2024-03-02T02:13:11;5.70;99.90
26037;DHT22;13810;48.376;10.944;2024-03-02T02:13:42;5.70;99.90
26037;DHT22;13810;48.376;10.944;2024-03-02T02:14:13;5.70;99.90
26037;DHT22;13810;48.376;10.944;2024-03-02T02:14:49;5.80;99.90
26037;DHT22;13810;48.376;10.944;2024-03-02T02:15:30;5.70;99.90
26037;DHT22;13810;48.376;10.944;2024-03-02T02:16:08;5.80;99.90
26037;DHT22;13810;48.376;10.944;2024-03-02T02:16:39;5.80;99.90
26037;DHT22;13810;48.376;10.944;2024-03-02T02:17:09;5.70;99.90
26037;DHT22;13810;48.376;10.944;2024-03-02T02:17:40;5.80;99.90
26037;DHT22;13810;48.376;10.944;2024-03-02T02:18:10;5.80;99.90
26037;DHT22;13810;48.376;10.944;2024-03-02T02:18:41;5.80;99.90
26037;DHT22;13810;48.376;10.944;2024-03-02T02:19:12;5.80;99.90
26037;DHT22;13810;48.376;10.944;2024-03-02T02:19:43;5.80;99.90
26037;DHT22;13810;48.376;10.944;2024-03-02T02:20:14;5.80;99.90
26037;DHT22;13810;48.376;10.944;2024-03-02T02:20:44;5.80;99.90
26037;DHT22;13810;48.376;10.944;2024-03-02T02:21:15;5.80;99.90
26037;DHT22;13810;48.376;10.944;2024-03-02T02:21:46;5.90;99.90
26037;DHT22;13810;48.376;10.944;2024-03-02T02:22:16;5.80;99.90
26037;DHT22;13810;48.376;10.944;2024-03-02T02:22:56;5.90;99.90
26037;DHT22;13810;48.376;10.944;2024-03-02T02:23:27;5.90;99.90
26037;DHT22;13810;48.376;10.944;2024-03-02T02:23:58;5.90;99.90
26037;DHT22;13810;48.376;10.944;2024-03-02T02:24:29;5.80;99.90
26037;DHT22;13810;48.376;10.944;2024-03-02T02:24:59;5.80;99.90
26037;DHT22;13810;48.376;10.944;2024-03-02T02:25:30;5.90;99.90
26037;DHT22;13810;48.376;10.944;2024-03-02T02:26:01;5.80;99.90
26037;DHT22;13810;48.376;10.944;2024-03-02T02:26:33;5.80;99.90
26037;DHT22;13810;48.376;10.944;2024-03-02T02:27:04;5.80;99.90
26037;DHT22;13810;48.376;10.944;2024-03-02T02:27:35;5.80;99.90
26037;DHT22;13810;48.376;10.944;2024-03-02T02:28:06;5.80;99.90
26037;DHT22;13810;48.376;10.944;2024-03-02T02:28:36;5.70;99.90
26037;DHT22;13810;48.376;10.944;2024-03-02T02:29:07;5.70;99.90
26037;DHT22;13810;48.376;10.944;2024-03-02T02:29:38;5.70;99.90
26037;DHT22;13810;48.376;10.944;2024-03-02T02:30:09;5.70;99.90
26037;DHT22;13810;48.376;10.944;2024-03-02T02:30:40;5.70;99.90
26037;DHT22;13810;48.376;10.944;2024-03-02T02:31:10;5.70;99.90
26037;DHT22;13810;48.376;10.944;2024-03-02T02:31:42;5.80;99.90
26037;DHT22;13810;48.376;10.944;2024-03-02T02:32:12;5.70;99.90
26037;DHT22;13810;48.376;10.944;2024-03-02T02:32:43;5.80;99.90
26037;DHT22;13810;48.376;10.944;2024-03-02T02:33:14;5.80;99.90
26037;DHT22;13810;48.376;10.944;2024-03-02T02:33:44;5.70;99.90
26037;DHT22;13810;48.376;10.944;2024-03-02T02:34:15;5.70;99.90
26037;DHT22;13810;48.376;10.944;2024-03-02T02:34:46;5.70;99.90
26037;DHT22;13810;48.376;10.944;2024-03-02T02:35:17;5.70;99.90
26037;DHT22;13810;48.376;10.944;2024-03-02T02:35:47;5.70;99.90
26037;DHT22;13810;48.376;10.944;2024-03-02T02:36:18;5.70;99.90
26037;DHT22;13810;48.376;10.944;2024-03-02T02:36:49;5.70;99.90
26037;DHT22;13810;48.376;10.944;2024-03-02T02:37:20;5.70;99.90
26037;DHT22;13810;48.376;10.944;2024-03-02T02:37:51;5.70;99.90
26037;DHT22;13810;48.376;10.944;2024-03-02T02:38:23;5.70;99.90
26037;DHT22;13810;48.376;10.944;2024-03-02T02:38:53;5.70;99.90
26037;DHT22;13810;48.376;10.944;2024-03-02T02:39:24;5.70;99.90
26037;DHT22;13810;48.376;10.944;2024-03-02T02:39:55;5.70;99.90
26037;DHT22;13810;48.376;10.944;2024-03-02T02:40:26;5.70;99.90
26037;DHT22;13810;48.376;10.944;2024-03-02T02:40:57;5.70;99.90
26037;DHT22;13810;48.376;10.944;2024-03-02T02:41:27;5.70;99.90
26037;DHT22;13810;48.376;10.944;2024-03-02T02:41:58;5.70;99.90
26037;DHT22;13810;48.376;10.944;2024-03-02T02:42:30;5.70;99.90
26037;DHT22;13810;48.376;10.944;2024-03-02T02:43:01;5.70;99.90
26037;DHT22;13810;48.376;10.944;2024-03-02T02:43:32;5.70;99.90
26037;DHT22;13810;48.376;10.944;2024-03-02T02:44:02;5.70;99.90
26037;DHT22;13810;48.376;10.944;2024-03-02T02:44:34;5.70;99.90
26037;DHT22;13810;48.376;10.944;2024-03-02T02:45:05;5.70;99.90
26037;DHT22;13810;48.376;10.944;2024-03-02T02:45:36;5.70;99.90
26037;DHT22;13810;48.376;10.944;2024-03-02T02:46:07;5.70;99.90
26037;DHT22;13810;48.376;10.944;2024-03-02T02:46:38;5.70;99.90
26037;DHT22;13810;48.376;10.944;2024-03-02T02:47:08;5.70;99.90
26037;DHT22;13810;48.376;10.944;2024-03-02T02:47:44;5.70;99.90
26037;DHT22;13810;48.376;10.944;2024-03-02T02:48:14;5.70;99.90
26037;DHT22;13810;48.376;10.944;2024-03-02T02:48:45;5.70;99.90
26037;DHT22;13810;48.376;10.944;2024-03-02T02:49:16;5.70;99.90
26037;DHT22;13810;48.376;10.944;2024-03-02T02:49:47;5.70;99.90
26037;DHT22;13810;48.376;10.944;2024-03-02T02:50:18;5.70;99.90
26037;DHT22;13810;48.376;10.944;2024-03-02T02:50:48;5.70;99.90
26037;DHT22;13810;48.376;10.944;2024-03-02T02:51:19;5.60;99.90
26037;DHT22;13810;48.376;10.944;2024-03-02T02:51:50;5.70;99.90
26037;DHT22;13810;48.376;10.944;2024-03-02T02:52:20;5.60;99.90
26037;DHT22;13810;48.376;10.944;2024-03-02T02:52:51;5.70;99.90
26037;DHT22;13810;48.376;10.944;2024-03-02T02:53:22;5.60;99.90
26037;DHT22;13810;48.376;10.944;2024-03-02T02:53:53;5.70;99.90
26037;DHT22;13810;48.376;10.944;2024-03-02T02:54:23;5.60;99.90
26037;DHT22;13810;48.376;10.944;2024-03-02T02:54:54;5.60;99.90
26037;DHT22;13810;48.376;10.944;2024-03-02T02:55:25;5.60;99.90
26037;DHT22;13810;48.376;10.944;2024-03-02T02:55:55;5.60;99.90
26037;DHT22;13810;48.376;10.944;2024-03-02T02:56:26;5.60;99.90
26037;DHT22;13810;48.376;10.944;2024-03-02T02:56:56;5.60;99.90
26037;DHT22;13810;48.376;10.944;2024-03-02T02:57:27;5.60;99.90
26037;DHT22;13810;48.376;10.944;2024-03-02T02:58:00;5.50;99.90
26037;DHT22;13810;48.376;10.944;2024-03-02T02:58:31;5.50;99.90
26037;DHT22;13810;48.376;10.944;2024-03-02T02:59:01;5.50;99.90
26037;DHT22;13810;48.376;10.944;2024-03-02T02:59:32;5.50;99.90
26037;DHT22;13810;48.376;10.944;2024-03-02T03:00:10;5.50;99.90
26037;DHT22;13810;48.376;10.944;2024-03-02T03:00:44;5.50;99.90
26037;DHT22;13810;48.376;10.944;2024-03-02T03:01:16;5.50;99.90
26037;DHT22;13810;48.376;10.944;2024-03-02T03:01:51;5.40;99.90
26037;DHT22;13810;48.376;10.944;2024-03-02T03:02:22;5.50;99.90
26037;DHT22;13810;48.376;10.944;2024-03-02T03:02:52;5.50;99.90
26037;DHT22;13810;48.376;10.944;2024-03-02T03:03:23;5.50;99.90
26037;DHT22;13810;48.376;10.944;2024-03-02T03:03:54;5.50;99.90
26037;DHT22;13810;48.376;10.944;2024-03-02T03:04:24;5.40;99.90
26037;DHT22;13810;48.376;10.944;2024-03-02T03:04:55;5.40;99.90
26037;DHT22;13810;48.376;10.944;2024-03-02T03:05:27;5.40;99.90
26037;DHT22;13810;48.376;10.944;2024-03-02T03:05:58;5.40;99.90
26037;DHT22;13810;48.376;10.944;2024-03-02T03:06:28;5.40;99.90
26037;DHT22;13810;48.376;10.944;2024-03-02T03:06:59;5.40;99.90
26037;DHT22;13810;48.376;10.944;2024-03-02T03:07:30;5.40;99.90
26037;DHT22;13810;48.376;10.944;2024-03-02T03:08:00;5.40;99.90
26037;DHT22;13810;48.376;10.944;2024-03-02T03:08:31;5.50;99.90
26037;DHT22;13810;48.376;10.944;2024-03-02T03:09:02;5.40;99.90
26037;DHT22;13810;48.376;10.944;2024-03-02T03:09:32;5.40;99.90
26037;DHT22;13810;48.376;10.944;2024-03-02T03:10:04;5.40;99.90
26037;DHT22;13810;48.376;10.944;2024-03-02T03:10:35;5.40;99.90
26037;DHT22;13810;48.376;10.944;2024-03-02T03:11:05;5.40;99.90
26037;DHT22;13810;48.376;10.944;2024-03-02T03:11:36;5.40;99.90
26037;DHT22;13810;48.376;10.944;2024-03-02T03:12:07;5.40;99.90
26037;DHT22;13810;48.376;10.944;2024-03-02T03:12:38;5.40;99.90
26037;DHT22;13810;48.376;10.944;2024-03-02T03:13:08;5.50;99.90
26037;DHT22;13810;48.376;10.944;2024-03-02T03:13:39;5.50;99.90
26037;DHT22;13810;48.376;10.944;2024-03-02T03:14:10;5.50;99.90
26037;DHT22;13810;48.376;10.944;2024-03-02T03:14:41;5.50;99.90
26037;DHT22;13810;48.376;10.944;2024-03-02T03:15:11;5.50;99.90
26037;DHT22;13810;48.376;10.944;2024-03-02T03:15:42;5.50;99.90
26037;DHT22;13810;48.376;10.944;2024-03-02T03:16:13;5.50;99.90
26037;DHT22;13810;48.376;10.944;2024-03-02T03:16:46;5.50;99.90
26037;DHT22;13810;48.376;10.944;2024-03-02T03:17:16;5.50;99.90
26037;DHT22;13810;48.376;10.944;2024-03-02T03:17:47;5.50;99.90
26037;DHT22;13810;48.376;10.944;2024-03-02T03:18:18;5.50;99.90
26037;DHT22;13810;48.376;10.944;2024-03-02T03:18:49;5.50;99.90
26037;DHT22;13810;48.376;10.944;2024-03-02T03:19:21;5.60;99.90
26037;DHT22;13810;48.376;10.944;2024-03-02T03:19:52;5.50;99.90
26037;DHT22;13810;48.376;10.944;2024-03-02T03:20:23;5.50;99.90